Time;durP1;ratioP1;P1;durP2;ratioP2;P2;SDS_P1;SDS_P2;PMS_P1;PMS_P2;Temp;Humidity;BMP_temperature;BMP_pressure;BME280_temperature;BME280_humidity;BME280_pressure;Samples;Min_cycle;Max_cycle;Signal;HPM_P1;HPM_P2
2023/03/04 00:01:31;;;;;;;42.00;20.10;;;;;;;-0.38;82.13;99733.34;217918;1256;140514;-65
2023/03/04 00:06:34;;;;;;;50.50;26.20;;;;;;;-0.37;82.14;99729.96;218060;1256;141465;-61
2023/03/04 00:11:38;;;;;;;42.10;21.70;;;;;;;-0.41;82.41;99733.53;217804;1257;141125;-62
2023/03/04 00:16:43;;;;;;;55.10;26.90;;;;;;;-0.44;82.44;99727.64;217733;1256;140050;-60
2023/03/04 00:21:47;;;;;;;44.70;23.00;;;;;;;-0.47;82.72;99736.11;218364;1256;141287;-62
2023/03/04 00:26:50;;;;;;;37.50;20.40;;;;;;;-0.48;82.72;99728.88;217491;1257;140083;-61
2023/03/04 00:31:53;;;;;;;29.40;16.20;;;;;;;-0.50;82.74;99721.91;217508;1256;140693;-65
2023/03/04 00:37:00;;;;;;;29.60;15.60;;;;;;;-0.50;82.90;99710.45;218713;1257;142223;-61
2023/03/04 00:42:03;;;;;;;33.10;18.60;;;;;;;-0.50;82.87;99698.89;217629;1256;142179;-62
2023/03/04 00:47:07;;;;;;;37.50;18.30;;;;;;;-0.49;83.12;99681.55;219538;1258;140298;-61
2023/03/04 00:52:10;;;;;;;35.10;15.90;;;;;;;-0.47;83.53;99676.08;220446;1256;140904;-66
2023/03/04 00:57:13;;;;;;;26.80;14.00;;;;;;;-0.40;83.45;99671.34;220368;1257;161565;-62
2023/03/04 01:02:15;;;;;;;30.50;16.20;;;;;;;-0.33;83.25;99669.01;219378;1256;142934;-61
2023/03/04 01:07:18;;;;;;;35.10;19.20;;;;;;;-0.31;83.32;99657.48;217485;1257;141814;-62
2023/03/04 01:12:21;;;;;;;56.00;28.40;;;;;;;-0.28;83.78;99656.21;218273;1256;140927;-62
2023/03/04 01:17:25;;;;;;;33.30;18.60;;;;;;;-0.24;83.79;99643.36;218962;1256;141096;-61
2023/03/04 01:22:29;;;;;;;33.40;18.60;;;;;;;-0.22;83.56;99637.40;218953;1256;140920;-61
2023/03/04 01:27:32;;;;;;;30.20;17.40;;;;;;;-0.17;83.70;99629.50;218350;1257;140662;-63
2023/03/04 01:32:35;;;;;;;29.30;16.00;;;;;;;-0.14;83.84;99625.31;217757;1258;139811;-62
2023/03/04 01:37:38;;;;;;;31.80;17.20;;;;;;;-0.09;83.63;99618.67;218702;1260;140348;-62
2023/03/04 01:42:42;;;;;;;31.00;18.60;;;;;;;-0.05;83.64;99607.70;217782;1257;141060;-62
2023/03/04 01:47:49;;;;;;;29.60;17.10;;;;;;;-0.01;83.61;99591.01;219007;1257;141119;-63
2023/03/04 01:52:52;;;;;;;29.60;15.00;;;;;;;0.02;83.57;99578.42;218292;1256;140964;-63
2023/03/04 01:57:58;;;;;;;25.30;15.50;;;;;;;0.06;83.48;99572.29;218594;1256;139823;-62
2023/03/04 02:03:11;;;;;;;25.20;16.20;;;;;;;0.10;83.68;99561.30;217395;1257;140718;-67
2023/03/04 02:08:17;;;;;;;30.90;16.60;;;;;;;0.15;83.46;99546.60;218627;1256;140972;-62
2023/03/04 02:13:21;;;;;;;30.80;15.60;;;;;;;0.19;83.25;99535.34;218022;1259;139810;-63
2023/03/04 02:18:25;;;;;;;22.90;12.70;;;;;;;0.20;83.43;99524.36;218640;1256;141131;-67
2023/03/04 02:23:54;;;;;;;21.00;13.00;;;;;;;0.22;83.33;99516.77;218082;1259;140254;-62
2023/03/04 02:29:00;;;;;;;30.30;17.80;;;;;;;0.22;83.23;99502.59;218784;1257;140440;-62
2023/03/04 02:34:16;;;;;;;24.30;13.50;;;;;;;0.23;83.09;99494.62;218282;1257;139748;-62
2023/03/04 02:39:19;;;;;;;27.80;16.00;;;;;;;0.25;83.07;99489.83;219633;1257;140646;-61
2023/03/04 02:44:31;;;;;;;22.40;14.80;;;;;;;0.27;82.64;99477.91;220420;1256;140239;-62
2023/03/04 02:49:36;;;;;;;25.20;14.60;;;;;;;0.30;82.79;99468.96;220369;1256;141686;-64
2023/03/04 02:54:39;;;;;;;19.90;12.10;;;;;;;0.36;82.87;99465.21;220227;1256;140612;-65
2023/03/04 02:59:42;;;;;;;25.30;13.50;;;;;;;0.40;82.76;99447.62;220466;1256;140428;-65
2023/03/04 03:04:45;;;;;;;23.00;15.00;;;;;;;0.44;82.45;99429.49;218499;1257;140017;-65
2023/03/04 03:09:48;;;;;;;28.80;14.00;;;;;;;0.46;82.34;99413.19;219513;1257;141171;-65
2023/03/04 03:14:52;;;;;;;18.10;10.80;;;;;;;0.45;82.41;99408.90;219308;1259;141482;-63
2023/03/04 03:19:54;;;;;;;21.80;13.50;;;;;;;0.45;82.03;99390.95;219112;1257;140501;-64
2023/03/04 03:24:56;;;;;;;27.70;13.10;;;;;;;0.46;82.23;99379.63;219246;1257;140059;-65
2023/03/04 03:29:58;;;;;;;22.50;12.60;;;;;;;0.45;82.19;99396.16;218278;1257;140094;-64
2023/03/04 03:35:01;;;;;;;28.60;16.10;;;;;;;0.44;82.18;99401.34;218452;1260;139833;-63
2023/03/04 03:40:04;;;;;;;24.30;12.70;;;;;;;0.43;81.93;99407.05;217874;1256;141586;-64
2023/03/04 03:45:07;;;;;;;21.10;13.20;;;;;;;0.42;81.70;99419.45;217703;1259;140374;-61
2023/03/04 03:50:11;;;;;;;29.00;13.60;;;;;;;0.40;81.62;99423.49;218129;1256;140028;-62
2023/03/04 03:55:15;;;;;;;27.30;16.30;;;;;;;0.40;81.79;99427.33;217929;1256;139799;-61
2023/03/04 04:00:19;;;;;;;22.50;13.40;;;;;;;0.41;81.74;99427.42;218188;1257;139987;-62
2023/03/04 04:05:23;;;;;;;28.60;15.40;;;;;;;0.39;81.37;99424.72;218024;1257;140261;-63
2023/03/04 04:10:27;;;;;;;30.50;15.30;;;;;;;0.39;81.56;99425.38;218473;1259;139686;-61
2023/03/04 04:15:29;;;;;;;24.00;13.30;;;;;;;0.39;81.55;99426.42;217570;1261;893623;-61
2023/03/04 04:20:31;;;;;;;26.10;14.40;;;;;;;0.37;81.58;99422.40;218905;1256;140921;-62
2023/03/04 04:25:34;;;;;;;21.70;13.40;;;;;;;0.37;81.33;99417.06;217880;1256;139763;-61
2023/03/04 04:30:38;;;;;;;23.20;11.90;;;;;;;0.38;81.44;99421.48;219421;1257;141024;-61
2023/03/04 04:35:42;;;;;;;23.30;14.10;;;;;;;0.39;81.32;99421.90;218929;1256;140833;-63
2023/03/04 04:40:45;;;;;;;18.30;11.50;;;;;;;0.40;81.31;99420.38;218480;1256;140136;-62
2023/03/04 04:45:48;;;;;;;18.50;10.90;;;;;;;0.40;81.26;99421.80;219742;1257;140590;-63
2023/03/04 04:50:55;;;;;;;24.00;14.70;;;;;;;0.43;81.19;99420.36;220340;1256;141040;-63
2023/03/04 04:55:58;;;;;;;19.20;12.00;;;;;;;0.47;81.06;99416.52;219668;1256;142239;-65
2023/03/04 05:01:01;;;;;;;18.20;10.70;;;;;;;0.48;80.81;99413.27;219772;1256;140712;-67
2023/03/04 05:06:07;;;;;;;20.00;12.50;;;;;;;0.51;80.56;99406.37;220355;1256;139873;-63
2023/03/04 05:11:10;;;;;;;21.20;10.90;;;;;;;0.52;80.79;99410.20;217625;1261;141929;-63
2023/03/04 05:16:14;;;;;;;22.90;11.70;;;;;;;0.56;80.89;99413.08;218968;1257;140524;-62
2023/03/04 05:21:18;;;;;;;17.30;11.60;;;;;;;0.56;80.44;99410.95;218331;1257;140193;-61
2023/03/04 05:26:21;;;;;;;21.40;14.00;;;;;;;0.54;80.59;99411.88;218710;1260;140734;-62
2023/03/04 05:31:24;;;;;;;23.50;12.60;;;;;;;0.57;80.34;99410.88;218342;1257;140268;-63
2023/03/04 05:36:27;;;;;;;21.00;10.60;;;;;;;0.55;80.48;99404.96;217708;1256;139979;-63
2023/03/04 05:41:30;;;;;;;22.70;13.00;;;;;;;0.53;80.70;99402.77;217816;1260;140049;-62
2023/03/04 05:46:33;;;;;;;22.40;11.70;;;;;;;0.51;80.68;99409.12;218070;1257;140049;-61
2023/03/04 05:51:36;;;;;;;25.70;15.20;;;;;;;0.50;80.56;99414.96;218413;1257;139822;-63
2023/03/04 05:56:39;;;;;;;27.90;14.90;;;;;;;0.49;80.56;99404.73;218075;1257;140270;-61
2023/03/04 06:01:42;;;;;;;22.20;12.60;;;;;;;0.49;80.48;99402.48;217824;1257;140240;-63
2023/03/04 06:06:46;;;;;;;23.60;14.10;;;;;;;0.48;80.30;99388.69;218016;1256;139754;-62
2023/03/04 06:11:49;;;;;;;26.80;14.50;;;;;;;0.49;80.26;99383.66;218580;1260;140013;-62
2023/03/04 06:16:52;;;;;;;27.40;14.70;;;;;;;0.53;80.47;99378.98;218868;1257;140449;-63
2023/03/04 06:21:55;;;;;;;28.20;13.80;;;;;;;0.58;80.64;99386.40;219207;1257;140534;-61
2023/03/04 06:27:00;;;;;;;25.50;13.70;;;;;;;0.59;80.34;99381.90;218864;1260;141841;-62
2023/03/04 06:32:03;;;;;;;21.00;14.00;;;;;;;0.63;79.97;99379.52;217990;1257;140886;-62
2023/03/04 06:37:07;;;;;;;23.50;13.80;;;;;;;0.65;80.29;99379.75;218163;1258;139940;-62
2023/03/04 06:42:10;;;;;;;24.90;13.90;;;;;;;0.69;79.97;99379.19;220102;1256;140523;-62
2023/03/04 06:47:13;;;;;;;25.10;12.80;;;;;;;0.74;80.28;99379.17;219609;1257;139787;-64
2023/03/04 06:52:16;;;;;;;22.40;15.10;;;;;;;0.79;80.26;99381.69;220530;1259;140303;-65
2023/03/04 06:57:19;;;;;;;28.70;16.40;;;;;;;0.86;80.03;99382.38;220305;1257;140205;-65
2023/03/04 07:02:23;;;;;;;21.40;12.70;;;;;;;0.92;79.66;99382.06;218982;1257;140473;-65
2023/03/04 07:07:26;;;;;;;26.00;15.50;;;;;;;0.97;80.05;99385.08;220513;1258;141989;-64
2023/03/04 07:12:29;;;;;;;29.00;15.50;;;;;;;1.02;79.84;99379.98;219497;1256;139964;-64
2023/03/04 07:17:33;;;;;;;25.80;15.10;;;;;;;1.07;79.77;99383.08;217706;1257;140217;-64
2023/03/04 07:22:36;;;;;;;21.30;13.20;;;;;;;1.11;79.84;99386.98;218316;1258;139650;-64
2023/03/04 07:27:40;;;;;;;31.50;13.90;;;;;;;1.11;79.98;99378.70;218197;1258;140380;-64
2023/03/04 07:32:45;;;;;;;21.90;14.20;;;;;;;1.13;79.80;99376.90;217870;1260;140247;-63
2023/03/04 07:37:48;;;;;;;21.50;13.20;;;;;;;1.14;79.90;99380.80;218143;1260;140657;-64
2023/03/04 07:42:53;;;;;;;23.50;10.90;;;;;;;1.15;79.78;99380.33;217559;1260;140019;-66
2023/03/04 07:48:00;;;;;;;22.00;12.90;;;;;;;1.17;79.87;99375.78;218091;1257;140245;-65
2023/03/04 07:53:02;;;;;;;23.60;13.60;;;;;;;1.18;79.82;99372.80;217981;1260;139869;-65
2023/03/04 07:58:06;;;;;;;25.10;14.80;;;;;;;1.25;79.93;99371.75;217996;1260;142401;-65
2023/03/04 08:03:10;;;;;;;21.40;13.70;;;;;;;1.31;79.95;99370.20;217850;1260;140229;-66
2023/03/04 08:08:13;;;;;;;22.60;13.40;;;;;;;1.37;80.11;99370.92;217882;1258;141265;-66
2023/03/04 08:13:18;;;;;;;25.00;14.40;;;;;;;1.41;79.68;99367.58;217750;1258;140547;-64
2023/03/04 08:18:21;;;;;;;26.20;11.60;;;;;;;1.43;79.86;99361.06;217947;1258;139835;-64
2023/03/04 08:23:25;;;;;;;22.80;12.40;;;;;;;1.46;79.56;99359.45;218403;1257;140419;-64
2023/03/04 08:28:28;;;;;;;18.10;11.30;;;;;;;1.51;79.68;99359.42;217705;1261;140306;-64
2023/03/04 08:33:31;;;;;;;24.20;12.30;;;;;;;1.56;79.45;99352.14;217438;1260;140002;-63
2023/03/04 08:38:35;;;;;;;24.30;12.20;;;;;;;1.59;79.20;99350.11;217435;1257;140843;-64
2023/03/04 08:43:38;;;;;;;18.10;10.50;;;;;;;1.62;79.52;99348.37;218495;1258;140244;-66
2023/03/04 08:48:42;;;;;;;22.80;12.70;;;;;;;1.64;79.43;99341.68;220386;1257;140091;-65
2023/03/04 08:53:44;;;;;;;18.40;10.40;;;;;;;1.69;79.39;99341.57;220297;1257;139950;-65
2023/03/04 08:58:47;;;;;;;18.70;10.10;;;;;;;1.77;79.44;99344.05;220157;1257;250290;-65
2023/03/04 09:03:50;;;;;;;21.40;12.10;;;;;;;1.85;79.01;99341.31;218661;1257;140422;-66
2023/03/04 09:08:53;;;;;;;19.70;13.70;;;;;;;1.91;79.00;99337.61;220386;1256;141002;-65
2023/03/04 09:13:56;;;;;;;22.40;11.90;;;;;;;2.01;79.00;99336.98;220122;1257;141241;-66
2023/03/04 09:18:59;;;;;;;22.30;12.70;;;;;;;2.09;78.69;99337.05;219825;1257;140493;-68
2023/03/04 09:24:02;;;;;;;20.00;12.80;;;;;;;2.13;78.79;99333.25;218942;1256;139942;-65
2023/03/04 09:29:05;;;;;;;15.10;10.20;;;;;;;2.17;78.69;99328.23;218892;1260;140157;-62
2023/03/04 09:34:09;;;;;;;20.60;11.70;;;;;;;2.20;78.52;99328.10;218289;1260;139843;-61
2023/03/04 09:39:12;;;;;;;15.90;11.40;;;;;;;2.21;78.56;99325.28;218211;1257;139773;-63
2023/03/04 09:44:32;;;;;;;26.70;11.00;;;;;;;2.20;78.75;99319.09;218616;1257;140551;-62
2023/03/04 09:49:39;;;;;;;19.00;10.00;;;;;;;2.17;78.73;99316.58;218284;1260;140194;-63
2023/03/04 09:55:03;;;;;;;25.10;12.20;;;;;;;2.20;78.83;99309.13;217774;1257;142023;-63
2023/03/04 10:00:33;;;;;;;23.60;11.60;;;;;;;2.26;78.97;99302.87;217748;1257;141631;-61
2023/03/04 10:05:50;;;;;;;24.40;12.00;;;;;;;2.36;79.10;99299.63;217985;1256;140481;-62
2023/03/04 10:10:55;;;;;;;27.50;13.10;;;;;;;2.43;78.97;99294.66;217704;1257;140039;-61
2023/03/04 10:16:00;;;;;;;24.90;12.80;;;;;;;2.47;78.87;99286.92;218448;1257;140012;-64
2023/03/04 10:21:16;;;;;;;19.10;12.00;;;;;;;2.53;78.98;99273.36;218653;1257;140306;-64
2023/03/04 10:26:21;;;;;;;26.50;13.40;;;;;;;2.56;78.88;99264.80;218895;1257;141694;-65
2023/03/04 10:31:37;;;;;;;25.20;11.30;;;;;;;2.62;79.08;99261.04;217850;1256;140474;-64
2023/03/04 10:37:00;;;;;;;24.90;13.40;;;;;;;2.66;79.00;99257.94;219086;1257;140796;-64
2023/03/04 10:42:14;;;;;;;21.00;9.50;;;;;;;2.71;79.02;99251.86;219626;1257;140654;-65
2023/03/04 10:47:18;;;;;;;31.90;16.20;;;;;;;2.77;79.06;99240.29;217586;1260;139547;-65
2023/03/04 10:52:30;;;;;;;69.70;29.90;;;;;;;2.84;79.10;99242.34;218813;1256;140756;-64
2023/03/04 10:57:42;;;;;;;59.60;39.20;;;;;;;2.90;79.00;99236.66;220301;1259;141235;-65
2023/03/04 11:02:47;;;;;;;27.60;22.70;;;;;;;2.89;78.93;99233.50;220300;1257;140524;-67
2023/03/04 11:07:57;;;;;;;31.00;19.40;;;;;;;2.91;78.94;99232.69;220309;1257;140592;-68
2023/03/04 11:13:18;;;;;;;23.20;14.00;;;;;;;2.95;78.96;99230.27;218645;1257;140562;-68
2023/03/04 11:18:36;;;;;;;23.90;14.60;;;;;;;2.96;79.12;99228.38;217409;1256;142095;-68
2023/03/04 11:23:57;;;;;;;21.70;16.00;;;;;;;3.01;79.27;99228.27;218106;1258;142855;-68
2023/03/04 11:29:09;;;;;;;23.90;14.50;;;;;;;3.04;79.27;99229.30;217510;1257;139982;-68
2023/03/04 11:34:28;;;;;;;23.10;13.70;;;;;;;3.03;79.36;99219.73;218627;1257;140016;-66
2023/03/04 11:39:45;;;;;;;18.90;9.30;;;;;;;3.08;79.43;99215.77;217559;1257;140083;-69
2023/03/04 11:44:48;;;;;;;25.40;13.10;;;;;;;3.15;79.39;99203.58;217352;1257;139795;-68
2023/03/04 11:50:13;;;;;;;21.40;11.40;;;;;;;3.23;79.60;99195.49;218086;1258;140263;-68
2023/03/04 11:55:28;;;;;;;;;;;;;;;3.32;79.45;99187.83;217507;1257;140680;-66
2023/03/04 12:01:00;;;;;;;20.00;11.00;;;;;;;3.42;79.42;99170.79;218235;1258;127047;-69
2023/03/04 12:06:44;;;;;;;23.20;11.60;;;;;;;3.73;79.86;99170.83;217323;1257;139780;-66
2023/03/04 12:12:09;;;;;;;19.00;11.00;;;;;;;4.06;79.48;99162.33;217389;1260;140259;-66
2023/03/04 12:17:56;;;;;;;18.80;12.30;;;;;;;4.17;79.19;99162.11;217867;1260;140014;-65
2023/03/04 12:23:28;;;;;;;16.30;13.20;;;;;;;4.21;79.20;99160.23;217533;1257;140044;-63
2023/03/04 12:29:06;;;;;;;18.50;11.60;;;;;;;4.27;79.02;99154.10;218168;1256;141499;-66
2023/03/04 12:34:32;;;;;;;8.60;7.00;;;;;;;4.19;78.84;99154.27;218961;1257;141519;-66
2023/03/04 12:39:59;;;;;;;14.90;7.90;;;;;;;4.09;78.65;99152.74;217871;1257;140168;-66
2023/03/04 12:45:24;;;;;;;9.10;6.70;;;;;;;4.10;79.10;99152.55;219334;1256;140140;-66
2023/03/04 12:51:05;;;;;;;6.70;6.00;;;;;;;4.24;78.66;99151.14;217291;1256;139781;-63
2023/03/04 12:56:39;;;;;;;10.50;6.60;;;;;;;4.41;78.84;99149.11;217006;1260;140447;-65
2023/03/04 13:02:04;;;;;;;12.90;6.90;;;;;;;4.57;78.56;99135.86;219501;1257;140233;-64
2023/03/04 13:07:25;;;;;;;9.50;4.80;;;;;;;4.81;78.67;99140.00;218548;1256;139472;-69
2023/03/04 13:12:27;;;;;;;10.80;6.80;;;;;;;4.99;78.36;99131.55;219099;1256;140010;-64
2023/03/04 13:17:42;;;;;;;9.70;5.00;;;;;;;5.06;78.07;99125.65;218030;1256;140180;-65
2023/03/04 13:23:08;;;;;;;8.40;5.00;;;;;;;5.01;77.57;99117.20;218105;1256;141038;-64
2023/03/04 13:28:17;;;;;;;6.30;4.70;;;;;;;4.97;77.47;99111.94;217348;1256;140716;-65
2023/03/04 13:33:21;;;;;;;5.90;5.10;;;;;;;4.93;77.12;99111.75;217801;1256;140069;-64
2023/03/04 13:38:27;;;;;;;10.20;5.00;;;;;;;4.85;77.12;99115.06;217277;1256;140789;-65
2023/03/04 13:43:55;;;;;;;7.60;3.90;;;;;;;4.75;76.89;99110.58;217660;1258;139854;-65
2023/03/04 13:48:59;;;;;;;4.90;3.30;;;;;;;4.69;76.79;99109.67;218104;1256;140279;-67
2023/03/04 13:54:02;;;;;;;4.40;3.10;;;;;;;4.65;76.84;99107.08;218223;1256;139439;-68
2023/03/04 13:59:08;;;;;;;6.00;3.80;;;;;;;4.63;77.02;99103.36;217177;1257;140018;-67
2023/03/04 14:04:35;;;;;;;6.50;2.90;;;;;;;4.60;76.92;99132.42;217460;1257;140658;-64
2023/03/04 14:09:56;;;;;;;3.30;2.10;;;;;;;4.19;75.61;99178.54;218066;1256;141366;-65
2023/03/04 14:15:21;;;;;;;5.50;2.80;;;;;;;3.51;75.07;99177.40;217633;1256;139422;-65
2023/03/04 14:20:32;;;;;;;4.50;2.00;;;;;;;3.08;75.83;99176.06;217928;1259;140475;-66
2023/03/04 14:25:36;;;;;;;2.90;1.70;;;;;;;2.84;76.21;99170.21;217415;1257;140044;-66
2023/03/04 14:30:42;;;;;;;6.20;2.50;;;;;;;2.68;76.41;99175.85;218183;1256;140277;-67
2023/03/04 14:35:51;;;;;;;4.80;2.30;;;;;;;2.59;76.82;99178.64;218346;1257;141336;-67
2023/03/04 14:41:21;;;;;;;6.10;2.80;;;;;;;2.57;77.07;99176.73;217631;1256;141031;-65
2023/03/04 14:46:34;;;;;;;7.10;2.40;;;;;;;2.60;77.16;99168.94;218022;1257;140497;-66
2023/03/04 14:51:55;;;;;;;5.10;3.10;;;;;;;2.59;77.28;99171.44;219657;1256;139430;-65
2023/03/04 14:57:20;;;;;;;3.80;3.50;;;;;;;2.57;77.59;99171.34;220124;1259;140645;-65
2023/03/04 15:02:38;;;;;;;4.20;2.90;;;;;;;2.62;77.56;99177.20;219890;1256;140244;-66
2023/03/04 15:07:49;;;;;;;3.70;3.00;;;;;;;2.65;77.28;99173.77;220297;1256;140824;-64
2023/03/04 15:12:55;;;;;;;6.50;4.40;;;;;;;2.70;77.69;99176.17;220229;1256;139875;-68
2023/03/04 15:18:25;;;;;;;5.30;3.70;;;;;;;2.70;77.43;99180.23;220264;1256;140961;-66
2023/03/04 15:23:31;;;;;;;10.60;4.90;;;;;;;2.66;77.45;99190.34;218509;1256;140198;-66
2023/03/04 15:28:40;;;;;;;6.00;3.60;;;;;;;2.69;77.56;99195.97;218277;1256;139729;-67
2023/03/04 15:33:44;;;;;;;6.50;4.30;;;;;;;2.68;77.40;99203.46;218187;1256;140056;-69
2023/03/04 15:38:52;;;;;;;6.60;3.60;;;;;;;2.58;77.27;99207.83;217492;1256;140582;-68
2023/03/04 15:43:56;;;;;;;10.00;3.50;;;;;;;2.49;77.38;99212.75;218015;1256;139784;-68
2023/03/04 15:49:02;;;;;;;7.90;4.00;;;;;;;2.44;77.34;99217.60;217708;1258;141188;-69
2023/03/04 15:54:12;;;;;;;11.40;3.60;;;;;;;2.38;77.44;99222.91;217253;1257;139934;-64
2023/03/04 15:59:23;;;;;;;9.40;3.30;;;;;;;2.29;77.31;99221.39;218302;1260;139564;-64
2023/03/04 16:04:27;;;;;;;10.10;3.10;;;;;;;2.22;77.36;99225.64;217647;1256;140578;-63
2023/03/04 16:09:31;;;;;;;9.70;4.80;;;;;;;2.09;77.17;99234.08;218102;1257;140839;-63
2023/03/04 16:14:36;;;;;;;6.00;3.50;;;;;;;1.97;77.40;99239.63;217536;1256;459829;-64
2023/03/04 16:19:42;;;;;;;11.70;5.30;;;;;;;1.84;77.16;99246.21;217625;1256;139948;-67
2023/03/04 16:24:45;;;;;;;3.90;2.90;;;;;;;1.75;77.62;99250.35;217446;1260;139906;-62
2023/03/04 16:29:52;;;;;;;18.00;6.70;;;;;;;1.64;77.50;99248.08;219640;1256;139758;-66
2023/03/04 16:34:56;;;;;;;8.10;4.10;;;;;;;1.59;77.63;99252.30;218245;1256;140952;-67
2023/03/04 16:39:59;;;;;;;8.70;5.50;;;;;;;1.55;77.97;99259.06;217290;1259;140265;-67
2023/03/04 16:45:09;;;;;;;11.00;4.70;;;;;;;1.53;78.05;99267.13;218113;1260;139943;-64
2023/03/04 16:50:15;;;;;;;9.90;6.90;;;;;;;1.45;78.16;99275.55;219275;1256;140425;-66
2023/03/04 16:55:27;;;;;;;9.10;4.20;;;;;;;1.33;77.93;99284.73;220237;1256;139268;-66
2023/03/04 17:00:35;;;;;;;11.40;6.10;;;;;;;1.24;78.10;99292.16;220272;1256;141423;-66
2023/03/04 17:05:46;;;;;;;11.60;5.90;;;;;;;1.20;78.03;99296.21;220269;1256;143590;-67
2023/03/04 17:10:51;;;;;;;11.10;7.00;;;;;;;1.18;78.28;99302.48;220428;1256;140670;-67
2023/03/04 17:16:02;;;;;;;10.00;5.90;;;;;;;1.15;78.30;99310.52;218764;1256;139592;-64
2023/03/04 17:21:12;;;;;;;11.80;6.90;;;;;;;1.11;78.21;99316.82;218572;1256;140064;-63
2023/03/04 17:26:25;;;;;;;16.90;6.60;;;;;;;1.09;78.50;99328.39;218223;1257;141403;-64
2023/03/04 17:31:34;;;;;;;15.40;6.60;;;;;;;1.09;78.88;99337.02;217820;1256;140163;-61
2023/03/04 17:36:44;;;;;;;13.00;7.00;;;;;;;1.06;78.98;99338.05;219080;1256;141592;-65
2023/03/04 17:41:56;;;;;;;13.10;5.80;;;;;;;1.01;78.83;99344.27;217875;1259;139870;-65
2023/03/04 17:47:12;;;;;;;15.70;6.40;;;;;;;0.93;78.79;99340.98;217350;1260;139960;-66
2023/03/04 17:52:21;;;;;;;10.60;7.40;;;;;;;0.85;78.87;99346.70;218367;1256;140556;-67
2023/03/04 17:57:28;;;;;;;29.60;12.90;;;;;;;0.77;78.87;99354.23;218659;1258;140057;-64
2023/03/04 18:02:34;;;;;;;9.90;5.10;;;;;;;0.72;78.92;99359.98;218047;1256;141817;-64
2023/03/04 18:07:37;;;;;;;13.30;5.80;;;;;;;0.66;78.66;99359.71;217438;1257;139805;-62
2023/03/04 18:12:46;;;;;;;6.20;4.10;;;;;;;0.61;78.61;99367.43;217465;1258;140715;-63
2023/03/04 18:17:50;;;;;;;12.60;6.30;;;;;;;0.55;78.42;99374.37;217744;1259;140230;-64
2023/03/04 18:22:55;;;;;;;11.00;7.30;;;;;;;0.55;78.11;99378.00;217604;1260;139714;-63
2023/03/04 18:28:03;;;;;;;9.80;4.90;;;;;;;0.55;77.89;99378.36;218017;1256;139706;-62
2023/03/04 18:33:12;;;;;;;9.80;3.90;;;;;;;0.57;77.42;99389.33;218065;1256;141159;-63
2023/03/04 18:38:17;;;;;;;6.10;4.00;;;;;;;0.58;77.15;99393.73;218630;1259;139771;-63
2023/03/04 18:43:22;;;;;;;4.10;2.20;;;;;;;0.57;76.81;99404.55;218930;1259;140984;-64
2023/03/04 18:48:25;;;;;;;5.00;2.90;;;;;;;0.55;76.31;99408.59;218148;1260;139422;-64
2023/03/04 18:53:30;;;;;;;7.60;3.50;;;;;;;0.57;75.31;99414.55;218327;1257;139442;-64
2023/03/04 18:58:37;;;;;;;6.20;4.30;;;;;;;0.58;74.95;99423.09;220540;1256;141789;-64
2023/03/04 19:03:43;;;;;;;6.40;2.70;;;;;;;0.60;74.35;99424.16;220230;1256;139627;-68
2023/03/04 19:08:53;;;;;;;3.10;1.80;;;;;;;0.58;73.70;99426.87;220205;1256;139407;-66
2023/03/04 19:13:57;;;;;;;6.00;1.70;;;;;;;0.53;73.17;99431.06;219224;1257;140461;-64
2023/03/04 19:19:05;;;;;;;5.20;2.60;;;;;;;0.46;72.86;99434.00;219711;1256;139565;-63
2023/03/04 19:24:08;;;;;;;4.50;2.20;;;;;;;0.41;72.57;99439.12;219679;1256;139031;-64
2023/03/04 19:29:14;;;;;;;4.20;1.70;;;;;;;0.37;72.07;99447.48;218288;1259;141245;-64
2023/03/04 19:34:20;;;;;;;8.30;3.40;;;;;;;0.31;71.63;99455.30;217655;1256;139204;-63
2023/03/04 19:39:23;;;;;;;9.30;2.70;;;;;;;0.19;71.63;99460.37;218559;1258;141105;-66
2023/03/04 19:44:28;;;;;;;5.90;2.90;;;;;;;0.08;71.45;99469.25;218461;1256;140380;-63
2023/03/04 19:49:33;;;;;;;5.60;2.80;;;;;;;-0.02;71.56;99473.58;218031;1260;139441;-63
2023/03/04 19:54:37;;;;;;;5.40;2.50;;;;;;;-0.14;71.25;99476.63;217921;1260;140206;-62
2023/03/04 19:59:41;;;;;;;5.30;2.80;;;;;;;-0.27;71.36;99483.04;218235;1257;140099;-63
2023/03/04 20:04:47;;;;;;;6.50;2.90;;;;;;;-0.39;71.20;99487.30;217881;1256;140788;-63
2023/03/04 20:09:54;;;;;;;8.50;3.40;;;;;;;-0.48;70.85;99490.57;218808;1260;140783;-63
2023/03/04 20:15:10;;;;;;;8.50;3.50;;;;;;;-0.54;71.10;99491.96;217766;1260;140082;-63
2023/03/04 20:20:15;;;;;;;6.90;3.30;;;;;;;-0.61;71.25;99492.65;218419;1256;139571;-62
2023/03/04 20:25:19;;;;;;;7.70;4.70;;;;;;;-0.73;70.98;99498.41;217721;1259;139015;-66
2023/03/04 20:30:24;;;;;;;8.30;3.70;;;;;;;-0.89;70.83;99505.09;218276;1256;139760;-63
2023/03/04 20:35:32;;;;;;;10.30;5.60;;;;;;;-1.04;71.08;99505.21;217672;1257;139308;-63
2023/03/04 20:40:36;;;;;;;8.00;3.80;;;;;;;-1.22;70.87;99500.45;219113;1256;139272;-63
2023/03/04 20:45:42;;;;;;;7.70;3.90;;;;;;;-1.35;71.06;99499.98;219463;1256;139786;-63
2023/03/04 20:50:45;;;;;;;7.70;5.00;;;;;;;-1.45;71.14;99502.06;219553;1256;139730;-64
2023/03/04 20:55:49;;;;;;;8.90;4.20;;;;;;;-1.57;71.38;99500.21;218453;1256;141092;-62
2023/03/04 21:00:54;;;;;;;8.40;4.50;;;;;;;-1.61;71.64;99500.64;219557;1259;140091;-62
2023/03/04 21:06:07;;;;;;;11.60;4.10;;;;;;;-1.58;71.69;99501.13;220354;1256;140567;-64
2023/03/04 21:11:13;;;;;;;9.40;5.40;;;;;;;-1.60;71.74;99503.08;220259;1256;150520;-63
2023/03/04 21:16:18;;;;;;;12.90;4.30;;;;;;;-1.59;71.63;99503.25;220461;1256;139814;-63
2023/03/04 21:21:26;;;;;;;9.30;4.60;;;;;;;-1.62;71.51;99498.73;220216;1256;141024;-63
2023/03/04 21:26:29;;;;;;;17.80;6.00;;;;;;;-1.63;71.33;99499.56;219352;1256;139004;-64
2023/03/04 21:31:36;;;;;;;20.40;6.90;;;;;;;-1.66;71.36;99499.33;217865;1256;139876;-62
2023/03/04 21:36:40;;;;;;;12.80;5.90;;;;;;;-1.73;71.05;99494.90;218354;1259;139898;-62
2023/03/04 21:41:45;;;;;;;17.30;8.30;;;;;;;-1.81;71.13;99492.63;217754;1256;139679;-62
2023/03/04 21:46:47;;;;;;;16.30;6.80;;;;;;;-1.93;71.26;99491.84;218730;1257;140678;-61
2023/03/04 21:51:50;;;;;;;17.10;6.50;;;;;;;-2.08;71.26;99491.63;217752;1257;139424;-63
2023/03/04 21:56:54;;;;;;;15.00;7.90;;;;;;;-2.21;71.21;99493.58;218229;1256;140271;-62
2023/03/04 22:01:57;;;;;;;16.20;8.20;;;;;;;-2.31;71.12;99493.98;217699;1257;139709;-63
2023/03/04 22:07:00;;;;;;;20.50;6.40;;;;;;;-2.40;71.06;99497.24;217657;1259;140133;-63
2023/03/04 22:12:04;;;;;;;10.70;5.80;;;;;;;-2.44;70.87;99496.44;217828;1257;140036;-63
2023/03/04 22:17:06;;;;;;;15.10;7.20;;;;;;;-2.44;70.95;99499.81;218778;1256;139716;-62
2023/03/04 22:22:09;;;;;;;11.40;6.40;;;;;;;-2.46;70.89;99498.48;218821;1259;140389;-62
2023/03/04 22:27:12;;;;;;;15.50;6.20;;;;;;;-2.47;70.61;99500.77;217833;1259;140443;-62
2023/03/04 22:32:16;;;;;;;15.20;7.80;;;;;;;-2.50;70.44;99501.83;218324;1256;160971;-62
2023/03/04 22:37:18;;;;;;;16.90;6.10;;;;;;;-2.55;70.40;99502.35;217906;1259;140444;-63
2023/03/04 22:42:21;;;;;;;15.60;6.10;;;;;;;-2.58;70.09;99504.95;218618;1256;139780;-62
2023/03/04 22:47:23;;;;;;;15.00;4.70;;;;;;;-2.65;69.88;99505.79;217728;1257;139294;-64
2023/03/04 22:52:26;;;;;;;8.90;4.20;;;;;;;-2.74;69.76;99499.38;218882;1256;139692;-63
2023/03/04 22:57:29;;;;;;;12.90;4.60;;;;;;;-2.81;69.70;99505.30;220390;1256;139113;-63
2023/03/04 23:02:37;;;;;;;9.70;4.60;;;;;;;-2.87;69.74;99501.90;220097;1260;140211;-66
2023/03/04 23:07:41;;;;;;;7.00;4.90;;;;;;;-2.91;69.54;99495.91;220215;1259;140930;-65
2023/03/04 23:12:44;;;;;;;9.80;4.70;;;;;;;-2.94;69.51;99502.66;218452;1259;139673;-66
2023/03/04 23:17:47;;;;;;;7.20;4.00;;;;;;;-2.90;69.40;99498.64;220126;1257;140127;-65
2023/03/04 23:22:50;;;;;;;11.70;4.30;;;;;;;-2.86;69.41;99497.12;219420;1260;139786;-64
2023/03/04 23:27:53;;;;;;;15.50;4.70;;;;;;;-2.88;69.14;99497.52;217564;1260;139221;-64